createdAt,value
2023-04-15T00:00:49.827Z,45.28
2023-04-15T00:01:49.873Z,46.08
2023-04-15T00:02:49.897Z,44.15
2023-04-15T00:03:49.942Z,44.96
2023-04-15T00:04:49.919Z,45.92
2023-04-15T00:05:49.755Z,44.15
2023-04-15T00:06:49.742Z,43.99
2023-04-15T00:07:49.756Z,43.99
2023-04-15T00:08:49.704Z,43.02
2023-04-15T00:09:49.703Z,42.86
2023-04-15T00:10:49.708Z,44.63
2023-04-15T00:11:50.729Z,43.99
2023-04-15T00:12:49.683Z,44.63
2023-04-15T00:13:49.666Z,46.41
2023-04-15T00:14:49.682Z,45.44
2023-04-15T00:15:49.633Z,47.53
2023-04-15T00:16:49.691Z,44.79
2023-04-15T00:17:49.702Z,44.47
2023-04-15T00:18:49.621Z,48.98
2023-04-15T00:19:49.603Z,44.47
2023-04-15T00:20:49.649Z,43.51
2023-04-15T00:21:49.584Z,44.31
2023-04-15T00:22:49.557Z,46.08
2023-04-15T00:23:49.559Z,45.92
2023-04-15T00:24:49.573Z,44.79
2023-04-15T00:25:49.562Z,50.43
2023-04-15T00:26:49.516Z,44.31
2023-04-15T00:27:49.525Z,45.28
2023-04-15T00:28:49.539Z,46.08
2023-04-15T00:29:49.508Z,44.15
2023-04-15T00:30:49.493Z,45.76
2023-04-15T00:31:49.505Z,44.63
2023-04-15T00:32:49.570Z,46.08
2023-04-15T00:33:49.464Z,49.95
2023-04-15T00:34:49.461Z,48.18
2023-04-15T00:35:49.446Z,45.60
2023-04-15T00:36:49.409Z,47.05
2023-04-15T00:37:49.451Z,44.96
2023-04-15T00:38:49.434Z,45.92
2023-04-15T00:39:49.381Z,43.83
2023-04-15T00:40:49.409Z,42.54
2023-04-15T00:41:49.383Z,45.12
2023-04-15T00:42:49.362Z,44.15
2023-04-15T00:43:49.354Z,45.12
2023-04-15T00:44:49.364Z,45.60
2023-04-15T00:45:49.390Z,44.31
2023-04-15T00:46:49.314Z,46.08
2023-04-15T00:47:49.372Z,43.51
2023-04-15T00:48:49.292Z,43.67
2023-04-15T00:49:49.294Z,43.34
2023-04-15T00:50:49.311Z,42.86
2023-04-15T00:51:49.274Z,44.47
2023-04-15T00:52:49.268Z,44.47
2023-04-15T00:53:49.254Z,48.18
2023-04-15T00:54:49.265Z,51.24
2023-04-15T00:55:49.248Z,49.47
2023-04-15T00:56:49.208Z,52.21
2023-04-15T00:57:49.215Z,52.69
2023-04-15T00:58:49.210Z,51.56
2023-04-15T00:59:49.194Z,55.91
2023-04-15T01:00:49.173Z,51.56
2023-04-15T01:01:49.285Z,49.47
2023-04-15T01:02:49.287Z,46.89
2023-04-15T01:03:49.356Z,47.37
2023-04-15T01:04:49.161Z,48.02
2023-04-15T01:05:49.139Z,47.21
2023-04-15T01:06:49.111Z,43.99
2023-04-15T01:07:49.104Z,46.57
2023-04-15T01:08:49.134Z,44.79
2023-04-15T01:09:49.100Z,43.51
2023-04-15T01:10:49.061Z,47.05
2023-04-15T01:11:49.106Z,47.53
2023-04-15T01:12:49.049Z,51.24
2023-04-15T01:13:49.052Z,48.02
2023-04-15T01:14:49.045Z,50.43
2023-04-15T01:15:49.079Z,48.66
2023-04-15T01:16:49.016Z,44.15
2023-04-15T01:17:49.032Z,43.99
2023-04-15T01:18:49.027Z,46.25
2023-04-15T01:19:48.967Z,43.99
2023-04-15T01:20:49.002Z,44.79
2023-04-15T01:21:48.966Z,44.79
2023-04-15T01:22:48.952Z,43.83
2023-04-15T01:23:48.952Z,43.99
2023-04-15T01:24:48.962Z,44.96
2023-04-15T01:25:48.912Z,45.12
2023-04-15T01:26:48.897Z,46.73
2023-04-15T01:27:48.919Z,46.41
2023-04-15T01:28:48.907Z,46.73
2023-04-15T01:29:48.898Z,48.34
2023-04-15T01:30:48.845Z,44.63
2023-04-15T01:31:48.890Z,44.31
2023-04-15T01:32:48.915Z,45.92
2023-04-15T01:33:48.839Z,45.44
2023-04-15T01:34:48.822Z,45.92
2023-04-15T01:35:48.834Z,47.86
2023-04-15T01:36:48.784Z,46.25
2023-04-15T01:37:48.795Z,45.28
2023-04-15T01:38:48.786Z,44.47
2023-04-15T01:39:48.778Z,43.18
2023-04-15T01:40:48.738Z,46.73
2023-04-15T01:41:48.742Z,44.15
2023-04-15T01:42:48.758Z,44.63
2023-04-15T01:43:48.729Z,42.86
2023-04-15T01:44:48.734Z,42.70
2023-04-15T01:45:48.705Z,42.86
2023-04-15T01:46:48.720Z,43.02
2023-04-15T01:47:48.725Z,45.92
2023-04-15T01:48:48.716Z,43.83
2023-04-15T01:49:48.667Z,43.34
2023-04-15T01:50:48.638Z,48.34
2023-04-15T01:51:48.660Z,48.50
2023-04-15T01:52:48.611Z,48.34
2023-04-15T01:53:48.613Z,47.53
2023-04-15T01:54:48.650Z,43.99
2023-04-15T01:55:48.608Z,43.51
2023-04-15T01:56:48.573Z,43.99
2023-04-15T01:57:48.589Z,43.83
2023-04-15T01:58:48.579Z,46.57
2023-04-15T01:59:48.534Z,43.99
2023-04-15T02:00:48.619Z,43.18
2023-04-15T02:01:48.594Z,44.15
2023-04-15T02:02:48.593Z,42.54
2023-04-15T02:03:48.718Z,42.38
2023-04-15T02:04:48.537Z,45.28
2023-04-15T02:05:48.502Z,46.08
2023-04-15T02:06:48.483Z,44.31
2023-04-15T02:07:48.502Z,42.06
2023-04-15T02:08:48.466Z,44.31
2023-04-15T02:09:48.463Z,45.76
2023-04-15T02:10:48.457Z,42.86
2023-04-15T02:11:48.445Z,43.18
2023-04-15T02:12:48.424Z,44.31
2023-04-15T02:13:48.420Z,46.57
2023-04-15T02:14:48.414Z,44.47
2023-04-15T02:15:48.389Z,44.96
2023-04-15T02:16:48.442Z,44.31
2023-04-15T02:17:49.431Z,47.53
2023-04-15T02:18:48.359Z,44.47
2023-04-15T02:19:48.362Z,44.31
2023-04-15T02:20:48.354Z,44.31
2023-04-15T02:21:48.344Z,43.83
2023-04-15T02:22:48.305Z,43.34
2023-04-15T02:23:48.327Z,43.02
2023-04-15T02:24:48.297Z,43.67
2023-04-15T02:25:53.848Z,43.99
2023-04-15T02:26:49.299Z,45.28
2023-04-15T02:27:48.269Z,45.12
2023-04-15T02:28:48.236Z,44.15
2023-04-15T02:29:48.257Z,47.05
2023-04-15T02:30:48.258Z,46.25
2023-04-15T02:31:48.268Z,45.60
2023-04-15T02:32:48.221Z,43.83
2023-04-15T02:33:48.195Z,46.57
2023-04-15T02:34:48.229Z,44.63
2023-04-15T02:35:48.193Z,46.08
2023-04-15T02:36:48.149Z,45.12
2023-04-15T02:37:48.159Z,43.34
2023-04-15T02:38:48.165Z,44.79
2023-04-15T02:39:48.142Z,46.73
2023-04-15T02:40:48.142Z,48.50
2023-04-15T02:41:48.133Z,43.18
2023-04-15T02:42:48.095Z,44.31
2023-04-15T02:43:48.101Z,43.34
2023-04-15T02:44:48.116Z,44.79
2023-04-15T02:45:48.109Z,45.76
2023-04-15T02:46:48.057Z,48.66
2023-04-15T02:47:48.094Z,49.47
2023-04-15T02:48:48.030Z,49.15
2023-04-15T02:49:48.053Z,47.86
2023-04-15T02:50:48.094Z,45.76
2023-04-15T02:51:48.000Z,46.08
2023-04-15T02:52:48.036Z,45.76
2023-04-15T02:53:48.002Z,44.31
2023-04-15T02:54:47.993Z,48.34
2023-04-15T02:55:47.984Z,44.63
2023-04-15T02:56:47.953Z,44.31
2023-04-15T02:57:48.955Z,45.12
2023-04-15T02:58:47.913Z,46.89
2023-04-15T02:59:47.941Z,44.63
2023-04-15T03:00:47.941Z,43.18
2023-04-15T03:01:48.036Z,47.05
2023-04-15T03:02:48.054Z,46.89
2023-04-15T03:03:47.985Z,45.76
2023-04-15T03:04:47.873Z,44.47
2023-04-15T03:05:47.869Z,44.47
2023-04-15T03:06:47.825Z,46.08
2023-04-15T03:07:47.849Z,48.02
2023-04-15T03:08:47.832Z,49.47
2023-04-15T03:09:48.810Z,44.79
2023-04-15T03:10:47.795Z,49.15
2023-04-15T03:11:47.804Z,48.66
2023-04-15T03:12:47.776Z,46.57
2023-04-15T03:13:47.784Z,45.12
2023-04-15T03:14:47.776Z,45.44
2023-04-15T03:15:47.790Z,44.96
2023-04-15T03:16:47.739Z,45.76
2023-04-15T03:17:47.807Z,44.31
2023-04-15T03:18:47.724Z,45.76
2023-04-15T03:19:47.687Z,45.60
2023-04-15T03:20:47.697Z,46.73
2023-04-15T03:21:47.679Z,47.70
2023-04-15T03:22:47.672Z,44.96
2023-04-15T03:23:47.656Z,45.76
2023-04-15T03:24:47.663Z,45.28
2023-04-15T03:25:47.647Z,47.21
2023-04-15T03:26:47.624Z,49.47
2023-04-15T03:27:47.627Z,45.76
2023-04-15T03:28:47.607Z,44.47
2023-04-15T03:29:47.602Z,44.31
2023-04-15T03:30:47.614Z,47.86
2023-04-15T03:31:47.597Z,47.70
2023-04-15T03:32:47.641Z,47.70
2023-04-15T03:33:47.571Z,45.76
2023-04-15T03:34:47.562Z,45.76
2023-04-15T03:35:47.530Z,47.86
2023-04-15T03:36:47.539Z,50.11
2023-04-15T03:37:47.533Z,45.76
2023-04-15T03:38:47.517Z,46.89
2023-04-15T03:39:47.502Z,45.92
2023-04-15T03:40:47.484Z,47.05
2023-04-15T03:41:47.468Z,47.21
2023-04-15T03:42:47.492Z,47.37
2023-04-15T03:43:47.442Z,48.34
2023-04-15T03:44:47.469Z,48.66
2023-04-15T03:45:47.441Z,50.76
2023-04-15T03:46:47.456Z,49.47
2023-04-15T03:47:47.424Z,52.85
2023-04-15T03:48:47.414Z,51.56
2023-04-15T03:49:47.415Z,49.63
2023-04-15T03:50:47.361Z,50.43
2023-04-15T03:51:47.381Z,49.47
2023-04-15T03:52:48.265Z,48.98
2023-04-15T03:53:47.344Z,49.95
2023-04-15T03:54:47.369Z,51.08
2023-04-15T03:55:47.338Z,49.95
2023-04-15T03:56:47.308Z,48.50
2023-04-15T03:57:47.310Z,49.63
2023-04-15T03:58:47.330Z,48.82
2023-04-15T03:59:47.284Z,46.89
2023-04-15T04:00:47.293Z,48.66
2023-04-15T04:01:47.338Z,50.92
2023-04-15T04:02:47.380Z,49.15
2023-04-15T04:03:47.387Z,47.70
2023-04-15T04:04:47.377Z,47.70
2023-04-15T04:05:47.229Z,53.01
2023-04-15T04:06:47.198Z,49.47
2023-04-15T04:07:47.221Z,47.37
2023-04-15T04:08:47.205Z,47.70
2023-04-15T04:09:47.417Z,49.15
2023-04-15T04:10:48.168Z,48.50
2023-04-15T04:11:47.162Z,46.57
2023-04-15T04:12:47.157Z,48.98
2023-04-15T04:13:47.144Z,49.31
2023-04-15T04:14:47.110Z,50.92
2023-04-15T04:15:47.157Z,46.73
2023-04-15T04:16:47.144Z,51.88
2023-04-15T04:17:47.178Z,53.17
2023-04-15T04:18:47.088Z,53.98
2023-04-15T04:19:47.090Z,49.79
2023-04-15T04:20:47.044Z,52.21
2023-04-15T04:21:47.046Z,50.92
2023-04-15T04:22:47.066Z,51.88
2023-04-15T04:23:47.020Z,53.66
2023-04-15T04:24:47.035Z,50.76
2023-04-15T04:25:47.031Z,50.43
2023-04-15T04:26:46.985Z,51.56
2023-04-15T04:27:46.985Z,48.50
2023-04-15T04:28:47.016Z,52.05
2023-04-15T04:29:46.964Z,55.43
2023-04-15T04:30:46.936Z,52.69
2023-04-15T04:31:47.028Z,54.46
2023-04-15T04:32:46.936Z,52.05
2023-04-15T04:33:46.929Z,51.40
2023-04-15T04:34:46.927Z,53.33
2023-04-15T04:35:46.906Z,49.47
2023-04-15T04:36:46.869Z,50.92
2023-04-15T04:37:46.902Z,52.69
2023-04-15T04:38:46.889Z,52.05
2023-04-15T04:39:46.904Z,50.11
2023-04-15T04:40:46.827Z,53.17
2023-04-15T04:41:46.825Z,54.14
2023-04-15T04:42:46.841Z,52.53
2023-04-15T04:43:46.838Z,53.01
2023-04-15T04:44:46.782Z,53.50
2023-04-15T04:45:46.797Z,51.72
2023-04-15T04:46:46.796Z,50.43
2023-04-15T04:47:46.825Z,53.33
2023-04-15T04:48:47.235Z,48.66
2023-04-15T04:49:47.762Z,52.85
2023-04-15T04:50:46.712Z,52.85
2023-04-15T04:51:46.741Z,51.88
2023-04-15T04:52:46.742Z,48.82
2023-04-15T04:53:46.712Z,49.15
2023-04-15T04:54:46.674Z,51.24
2023-04-15T04:55:46.702Z,52.53
2023-04-15T04:56:46.659Z,50.76
2023-04-15T04:57:46.650Z,51.88
2023-04-15T04:58:46.671Z,53.01
2023-04-15T04:59:46.637Z,47.05
2023-04-15T05:00:46.617Z,46.57
2023-04-15T05:01:46.726Z,55.11
2023-04-15T05:02:46.693Z,55.11
2023-04-15T05:03:46.693Z,53.01
2023-04-15T05:04:46.608Z,49.79
2023-04-15T05:05:46.615Z,53.66
2023-04-15T05:06:46.588Z,52.05
2023-04-15T05:07:46.574Z,51.40
2023-04-15T05:08:46.557Z,51.40
2023-04-15T05:09:46.546Z,54.79
2023-04-15T05:10:46.517Z,50.27
2023-04-15T05:11:46.502Z,47.37
2023-04-15T05:12:46.527Z,48.66
2023-04-15T05:13:46.510Z,48.18
2023-04-15T05:14:46.476Z,49.79
2023-04-15T05:15:46.482Z,49.95
2023-04-15T05:16:46.481Z,53.66
2023-04-15T05:17:46.478Z,53.82
2023-04-15T05:18:46.422Z,51.40
2023-04-15T05:19:46.475Z,45.44
2023-04-15T05:20:46.416Z,46.25
2023-04-15T05:21:46.407Z,46.57
2023-04-15T05:22:46.442Z,48.98
2023-04-15T05:23:46.392Z,49.79
2023-04-15T05:24:46.362Z,50.43
2023-04-15T05:25:46.382Z,53.50
2023-04-15T05:26:46.394Z,49.47
2023-04-15T05:27:46.331Z,52.05
2023-04-15T05:28:46.349Z,52.53
2023-04-15T05:29:46.339Z,49.15
2023-04-15T05:30:46.334Z,53.82
2023-04-15T05:31:46.300Z,52.05
2023-04-15T05:32:46.323Z,52.53
2023-04-15T05:33:46.301Z,51.40
2023-04-15T05:34:46.263Z,51.56
2023-04-15T05:35:46.283Z,49.15
2023-04-15T05:36:46.248Z,47.53
2023-04-15T05:37:46.249Z,48.18
2023-04-15T05:38:46.245Z,54.62
2023-04-15T05:39:46.233Z,51.40
2023-04-15T05:40:46.185Z,50.92
2023-04-15T05:41:46.208Z,51.88
2023-04-15T05:42:46.248Z,51.24
2023-04-15T05:43:46.195Z,51.72
2023-04-15T05:44:46.160Z,56.72
2023-04-15T05:45:46.272Z,51.40
2023-04-15T05:46:46.170Z,54.14
2023-04-15T05:47:46.170Z,54.62
2023-04-15T05:48:46.126Z,50.76
2023-04-15T05:49:46.119Z,51.88
2023-04-15T05:50:46.123Z,48.82
2023-04-15T05:51:46.101Z,50.43
2023-04-15T05:52:46.094Z,49.47
2023-04-15T05:53:46.103Z,47.05
2023-04-15T05:54:46.068Z,48.50
2023-04-15T05:55:46.056Z,52.53
2023-04-15T05:56:46.064Z,55.11
2023-04-15T05:57:46.051Z,52.69
2023-04-15T05:58:46.028Z,50.43
2023-04-15T05:59:46.029Z,53.01
2023-04-15T06:00:46.008Z,48.98
2023-04-15T06:01:46.006Z,54.79
2023-04-15T06:02:46.148Z,51.40
2023-04-15T06:03:46.113Z,49.47
2023-04-15T06:04:45.983Z,53.66
2023-04-15T06:05:45.970Z,54.46
2023-04-15T06:06:45.965Z,51.72
2023-04-15T06:07:48.025Z,45.44
2023-04-15T06:08:46.938Z,52.05
2023-04-15T06:09:45.945Z,50.11
2023-04-15T06:10:45.902Z,50.60
2023-04-15T06:11:45.897Z,49.95
2023-04-15T06:12:45.918Z,50.43
2023-04-15T06:13:45.874Z,51.24
2023-04-15T06:14:45.843Z,56.07
2023-04-15T06:15:45.855Z,52.21
2023-04-15T06:16:45.843Z,52.05
2023-04-15T06:17:45.862Z,50.76
2023-04-15T06:18:45.843Z,55.11
2023-04-15T06:19:45.815Z,49.95
2023-04-15T06:20:45.795Z,49.63
2023-04-15T06:21:45.796Z,56.88
2023-04-15T06:22:45.795Z,54.30
2023-04-15T06:23:45.748Z,50.27
2023-04-15T06:24:45.778Z,55.11
2023-04-15T06:25:45.777Z,52.05
2023-04-15T06:26:45.721Z,54.30
2023-04-15T06:27:45.730Z,56.24
2023-04-15T06:28:45.734Z,51.40
2023-04-15T06:29:45.709Z,54.30
2023-04-15T06:30:45.700Z,55.43
2023-04-15T06:31:45.771Z,53.01
2023-04-15T06:32:45.727Z,55.91
2023-04-15T06:33:45.680Z,53.33
2023-04-15T06:34:45.683Z,53.98
2023-04-15T06:35:45.641Z,57.20
2023-04-15T06:36:45.628Z,53.98
2023-04-15T06:37:45.621Z,50.43
2023-04-15T06:38:45.637Z,51.24
2023-04-15T06:39:45.587Z,54.95
2023-04-15T06:40:45.603Z,56.56
2023-04-15T06:41:45.587Z,56.24
2023-04-15T06:42:45.587Z,57.04
2023-04-15T06:43:45.554Z,55.59
2023-04-15T06:44:45.564Z,53.82
2023-04-15T06:45:45.590Z,54.30
2023-04-15T06:46:45.512Z,51.72
2023-04-15T06:47:45.599Z,53.01
2023-04-15T06:48:45.534Z,57.69
2023-04-15T06:49:45.517Z,52.53
2023-04-15T06:50:45.537Z,54.79
2023-04-15T06:51:45.477Z,55.75
2023-04-15T06:52:45.476Z,53.66
2023-04-15T06:53:45.466Z,53.01
2023-04-15T06:54:45.467Z,57.20
2023-04-15T06:55:45.469Z,57.52
2023-04-15T06:56:45.421Z,54.30
2023-04-15T06:57:45.443Z,54.30
2023-04-15T06:58:45.424Z,52.85
2023-04-15T06:59:45.429Z,52.85
2023-04-15T07:00:45.392Z,53.17
2023-04-15T07:01:45.472Z,55.59
2023-04-15T07:02:45.486Z,52.53
2023-04-15T07:03:45.366Z,55.91
2023-04-15T07:04:45.376Z,56.40
2023-04-15T07:05:45.350Z,56.72
2023-04-15T07:06:45.323Z,56.88
2023-04-15T07:07:45.316Z,55.27
2023-04-15T07:08:45.320Z,54.14
2023-04-15T07:09:45.332Z,52.69
2023-04-15T07:10:45.255Z,51.08
2023-04-15T07:11:45.281Z,55.27
2023-04-15T07:12:46.272Z,54.30
2023-04-15T07:13:45.243Z,55.91
2023-04-15T07:14:45.264Z,55.91
2023-04-15T07:15:45.240Z,54.30
2023-04-15T07:16:45.236Z,51.40
2023-04-15T07:17:45.264Z,55.59
2023-04-15T07:18:45.222Z,51.24
2023-04-15T07:19:45.184Z,55.91
2023-04-15T07:20:45.157Z,55.27
2023-04-15T07:21:45.184Z,55.59
2023-04-15T07:22:45.174Z,59.14
2023-04-15T07:23:45.143Z,57.69
2023-04-15T07:24:45.145Z,53.33
2023-04-15T07:25:45.121Z,56.24
2023-04-15T07:26:45.167Z,56.07
2023-04-15T07:27:45.092Z,58.33
2023-04-15T07:28:45.109Z,57.04
2023-04-15T07:29:45.119Z,56.24
2023-04-15T07:30:45.089Z,58.65
2023-04-15T07:31:45.067Z,58.81
2023-04-15T07:32:45.095Z,56.40
2023-04-15T07:33:45.035Z,57.04
2023-04-15T07:34:45.020Z,55.59
2023-04-15T07:35:45.037Z,56.24
2023-04-15T07:36:45.012Z,58.01
2023-04-15T07:37:44.990Z,58.17
2023-04-15T07:38:45.001Z,58.33
2023-04-15T07:39:44.991Z,56.88
2023-04-15T07:40:44.950Z,57.20
2023-04-15T07:41:44.959Z,57.85
2023-04-15T07:42:44.978Z,57.36
2023-04-15T07:43:44.931Z,56.72
2023-04-15T07:44:44.962Z,53.17
2023-04-15T07:45:44.925Z,54.30
2023-04-15T07:46:44.898Z,55.75
2023-04-15T07:47:44.945Z,57.20
2023-04-15T07:48:44.900Z,55.75
2023-04-15T07:49:44.883Z,56.24
2023-04-15T07:50:44.844Z,56.72
2023-04-15T07:51:44.867Z,56.07
2023-04-15T07:52:44.869Z,58.17
2023-04-15T07:53:44.846Z,57.20
2023-04-15T07:54:44.803Z,56.56
2023-04-15T07:55:44.823Z,58.97
2023-04-15T07:56:44.813Z,54.95
2023-04-15T07:57:44.815Z,57.04
2023-04-15T07:58:44.790Z,58.49
2023-04-15T07:59:44.789Z,59.62
2023-04-15T08:00:44.761Z,58.97
2023-04-15T08:01:44.760Z,58.65
2023-04-15T08:02:44.818Z,59.14
2023-04-15T08:03:44.834Z,58.65
2023-04-15T08:04:44.819Z,57.04
2023-04-15T08:05:44.708Z,57.04
2023-04-15T08:06:44.718Z,56.56
2023-04-15T08:07:44.689Z,57.69
2023-04-15T08:08:44.709Z,58.97
2023-04-15T08:09:44.668Z,60.75
2023-04-15T08:10:44.653Z,58.97
2023-04-15T08:11:44.644Z,59.94
2023-04-15T08:12:44.655Z,60.10
2023-04-15T08:13:44.624Z,58.81
2023-04-15T08:14:44.601Z,60.26
2023-04-15T08:15:44.679Z,58.97
2023-04-15T08:16:44.596Z,57.69
2023-04-15T08:17:44.641Z,58.97
2023-04-15T08:18:44.576Z,58.17
2023-04-15T08:19:44.563Z,60.91
2023-04-15T08:20:44.539Z,57.20
2023-04-15T08:21:44.524Z,59.62
2023-04-15T08:22:44.537Z,60.26
2023-04-15T08:23:45.527Z,58.97
2023-04-15T08:24:44.482Z,57.85
2023-04-15T08:25:44.514Z,58.49
2023-04-15T08:26:44.500Z,58.97
2023-04-15T08:27:44.480Z,59.62
2023-04-15T08:28:44.457Z,59.46
2023-04-15T08:29:44.450Z,59.78
2023-04-15T08:30:44.450Z,60.26
2023-04-15T08:31:44.458Z,60.26
2023-04-15T08:32:44.429Z,60.75
2023-04-15T08:33:44.411Z,59.14
2023-04-15T08:34:44.398Z,60.91
2023-04-15T08:35:44.397Z,59.62
2023-04-15T08:36:44.396Z,58.97
2023-04-15T08:37:44.386Z,60.75
2023-04-15T08:38:44.363Z,56.88
2023-04-15T08:39:44.353Z,58.49
2023-04-15T08:40:44.344Z,59.46
2023-04-15T08:41:44.333Z,59.30
2023-04-15T08:42:44.934Z,57.20
2023-04-15T08:43:44.347Z,59.14
2023-04-15T08:44:44.276Z,60.10
2023-04-15T08:45:44.282Z,59.94
2023-04-15T08:46:44.303Z,61.23
2023-04-15T08:47:44.301Z,60.26
2023-04-15T08:48:44.291Z,59.94
2023-04-15T08:49:44.283Z,60.10
2023-04-15T08:50:44.227Z,59.30
2023-04-15T08:51:44.214Z,61.55
2023-04-15T08:52:44.228Z,60.59
2023-04-15T08:53:44.210Z,59.78
2023-04-15T08:54:44.210Z,62.20
2023-04-15T08:55:44.196Z,60.26
2023-04-15T08:56:44.220Z,59.78
2023-04-15T08:57:44.167Z,60.42
2023-04-15T08:58:44.153Z,58.01
2023-04-15T08:59:44.157Z,59.30
2023-04-15T09:00:44.177Z,58.97
2023-04-15T09:01:44.136Z,60.91
2023-04-15T09:02:44.204Z,61.71
2023-04-15T09:03:44.322Z,59.30
2023-04-15T09:04:44.095Z,61.71
2023-04-15T09:05:44.092Z,59.62
2023-04-15T09:06:44.084Z,60.10
2023-04-15T09:07:44.131Z,60.75
2023-04-15T09:08:44.040Z,60.26
2023-04-15T09:09:44.061Z,59.46
2023-04-15T09:10:44.051Z,59.94
2023-04-15T09:11:43.999Z,59.78
2023-04-15T09:12:44.019Z,61.23
2023-04-15T09:13:44.015Z,59.94
2023-04-15T09:14:43.963Z,62.36
2023-04-15T09:15:43.958Z,62.36
2023-04-15T09:16:44.032Z,59.94
2023-04-15T09:17:44.029Z,59.14
2023-04-15T09:18:43.929Z,61.71
2023-04-15T09:19:43.967Z,60.75
2023-04-15T09:20:43.901Z,61.23
2023-04-15T09:21:43.930Z,59.94
2023-04-15T09:22:43.950Z,58.81
2023-04-15T09:23:43.896Z,60.42
2023-04-15T09:24:43.855Z,62.36
2023-04-15T09:25:43.871Z,60.91
2023-04-15T09:26:43.869Z,59.30
2023-04-15T09:27:43.848Z,59.30
2023-04-15T09:28:43.819Z,60.26
2023-04-15T09:29:43.861Z,57.85
2023-04-15T09:30:43.859Z,59.46
2023-04-15T09:31:43.816Z,60.26
2023-04-15T09:32:43.781Z,58.49
2023-04-15T09:33:43.782Z,59.14
2023-04-15T09:34:43.801Z,59.30
2023-04-15T09:35:43.752Z,60.26
2023-04-15T09:36:43.774Z,62.20
2023-04-15T09:37:43.742Z,60.75
2023-04-15T09:38:43.749Z,59.30
2023-04-15T09:39:43.722Z,58.17
2023-04-15T09:40:43.720Z,60.10
2023-04-15T09:41:43.742Z,59.46
2023-04-15T09:42:43.669Z,60.59
2023-04-15T09:43:43.694Z,58.97
2023-04-15T09:44:43.691Z,56.07
2023-04-15T09:45:43.706Z,58.33
2023-04-15T09:46:43.693Z,59.78
2023-04-15T09:47:43.675Z,59.14
2023-04-15T09:48:43.616Z,60.26
2023-04-15T09:49:43.652Z,61.07
2023-04-15T09:51:16.021Z,59.30
2023-04-15T09:51:51.319Z,59.94
2023-04-15T09:52:45.591Z,60.75
2023-04-15T09:53:43.585Z,58.33
2023-04-15T09:54:43.571Z,58.01
2023-04-15T09:55:43.570Z,59.14
2023-04-15T09:56:43.561Z,61.23
2023-04-15T09:57:43.527Z,60.59
2023-04-15T09:58:43.655Z,60.42
2023-04-15T09:59:43.538Z,59.62
2023-04-15T10:00:43.498Z,60.59
2023-04-15T10:01:43.539Z,60.10
2023-04-15T10:02:43.641Z,59.46
2023-04-15T10:03:43.566Z,61.07
2023-04-15T10:04:43.469Z,59.46
2023-04-15T10:05:43.453Z,56.56
2023-04-15T10:06:43.449Z,57.20
2023-04-15T10:07:43.444Z,58.49
2023-04-15T10:08:43.418Z,59.30
2023-04-15T10:09:43.450Z,61.07
2023-04-15T10:10:43.387Z,59.62
2023-04-15T10:11:43.389Z,56.56
2023-04-15T10:12:43.417Z,55.59
2023-04-15T10:13:43.380Z,54.46
2023-04-15T10:14:43.379Z,59.78
2023-04-15T10:15:43.400Z,58.65
2023-04-15T10:16:43.372Z,60.10
2023-04-15T10:17:43.384Z,59.78
2023-04-15T10:18:43.313Z,57.69
2023-04-15T10:19:43.341Z,59.30
2023-04-15T10:20:43.292Z,61.55
2023-04-15T10:21:43.277Z,58.81
2023-04-15T10:22:44.316Z,57.52
2023-04-15T10:23:43.267Z,59.30
2023-04-15T10:24:43.267Z,57.52
2023-04-15T10:25:43.251Z,59.14
2023-04-15T10:26:43.248Z,58.81
2023-04-15T10:27:43.246Z,60.75
2023-04-15T10:28:43.218Z,58.65
2023-04-15T10:29:43.296Z,58.81
2023-04-15T10:30:43.215Z,58.65
2023-04-15T10:31:43.309Z,58.33
2023-04-15T10:32:43.291Z,56.07
2023-04-15T10:33:43.172Z,59.78
2023-04-15T10:34:43.181Z,59.14
2023-04-15T10:35:43.162Z,59.94
2023-04-15T10:36:43.185Z,58.17
2023-04-15T10:37:43.126Z,58.17
2023-04-15T10:38:43.135Z,59.62
2023-04-15T10:39:43.161Z,59.78
2023-04-15T10:40:43.103Z,59.46
2023-04-15T10:41:43.093Z,60.42
2023-04-15T10:42:43.103Z,59.14
2023-04-15T10:43:43.074Z,58.17
2023-04-15T10:44:43.081Z,59.46
2023-04-15T10:45:43.086Z,57.36
2023-04-15T10:46:43.052Z,56.72
2023-04-15T10:47:43.089Z,57.69
2023-04-15T10:48:43.020Z,56.56
2023-04-15T10:49:43.506Z,56.24
2023-04-15T10:50:42.997Z,57.20
2023-04-15T10:51:42.997Z,58.17
2023-04-15T10:52:42.970Z,59.62
2023-04-15T10:53:42.953Z,59.46
2023-04-15T10:54:42.990Z,57.04
2023-04-15T10:55:42.959Z,59.14
2023-04-15T10:56:42.983Z,59.94
2023-04-15T10:57:42.941Z,58.33
2023-04-15T10:58:42.932Z,57.85
2023-04-15T10:59:42.914Z,56.24
2023-04-15T11:00:42.917Z,58.81
2023-04-15T11:01:42.948Z,59.62
2023-04-15T11:02:42.984Z,59.14
2023-04-15T11:03:43.098Z,58.97
2023-04-15T11:04:43.209Z,59.94
2023-04-15T11:05:43.850Z,59.78
2023-04-15T11:06:42.819Z,59.62
2023-04-15T11:07:42.844Z,59.14
2023-04-15T11:08:42.816Z,58.33
2023-04-15T11:09:42.907Z,59.46
2023-04-15T11:10:42.796Z,59.14
2023-04-15T11:11:44.008Z,58.33
2023-04-15T11:12:42.771Z,56.88
2023-04-15T11:13:42.790Z,56.72
2023-04-15T11:14:42.752Z,59.46
2023-04-15T11:15:42.762Z,60.59
2023-04-15T11:16:42.802Z,60.59
2023-04-15T11:17:43.639Z,58.33
2023-04-15T11:18:42.800Z,59.94
2023-04-15T11:19:42.684Z,58.49
2023-04-15T11:20:42.755Z,57.85
2023-04-15T11:21:42.663Z,60.26
2023-04-15T11:22:42.661Z,59.78
2023-04-15T11:23:42.683Z,58.17
2023-04-15T11:24:42.656Z,58.17
2023-04-15T11:25:42.641Z,58.49
2023-04-15T11:26:42.631Z,58.01
2023-04-15T11:27:42.610Z,57.85
2023-04-15T11:28:42.607Z,60.91
2023-04-15T11:29:42.583Z,59.78
2023-04-15T11:30:42.616Z,58.17
2023-04-15T11:31:42.591Z,59.78
2023-04-15T11:32:42.604Z,57.52
2023-04-15T11:33:43.574Z,59.30
2023-04-15T11:34:42.536Z,58.17
2023-04-15T11:35:42.524Z,56.40
2023-04-15T11:36:42.531Z,57.04
2023-04-15T11:37:42.510Z,56.56
2023-04-15T11:38:42.516Z,60.59
2023-04-15T11:39:42.483Z,57.20
2023-04-15T11:40:44.488Z,58.49
2023-04-15T11:41:42.456Z,56.07
2023-04-15T11:42:49.443Z,56.56
2023-04-15T11:43:44.477Z,57.20
2023-04-15T11:44:43.436Z,56.07
2023-04-15T11:45:42.479Z,56.88
2023-04-15T11:46:44.412Z,57.52
2023-04-15T11:47:42.455Z,58.65
2023-04-15T11:48:42.409Z,55.11
2023-04-15T11:49:42.387Z,55.43
2023-04-15T11:50:42.388Z,58.01
2023-04-15T11:51:42.382Z,58.49
2023-04-15T11:52:42.339Z,57.20
2023-04-15T11:53:42.359Z,57.20
2023-04-15T11:54:42.348Z,57.69
2023-04-15T11:55:42.321Z,56.07
2023-04-15T11:56:42.346Z,56.07
2023-04-15T11:57:42.303Z,57.69
2023-04-15T11:58:42.299Z,59.14
2023-04-15T11:59:45.300Z,60.10
2023-04-15T12:00:43.271Z,56.07
2023-04-15T12:01:42.263Z,56.07
2023-04-15T12:02:43.290Z,56.88
2023-04-15T12:03:42.371Z,55.59
2023-04-15T12:04:42.486Z,57.52
2023-04-15T12:05:42.213Z,55.91
2023-04-15T12:06:42.205Z,56.07
2023-04-15T12:07:42.188Z,58.01
2023-04-15T12:08:42.204Z,58.81
2023-04-15T12:09:42.181Z,58.01
2023-04-15T12:10:42.156Z,58.81
2023-04-15T12:11:42.164Z,58.81
2023-04-15T12:12:42.166Z,57.20
2023-04-15T12:13:42.120Z,57.20
2023-04-15T12:14:43.147Z,57.20
2023-04-15T12:15:42.149Z,56.24
2023-04-15T12:16:48.779Z,55.59
2023-04-15T12:17:51.434Z,57.69
2023-04-15T12:18:43.088Z,58.17
2023-04-15T12:19:42.096Z,56.07
2023-04-15T12:20:42.070Z,58.33
2023-04-15T12:21:42.041Z,57.52
2023-04-15T12:22:42.051Z,59.14
2023-04-15T12:23:42.026Z,57.20
2023-04-15T12:24:42.028Z,54.62
2023-04-15T12:25:42.038Z,55.27
2023-04-15T12:26:41.998Z,58.01
2023-04-15T12:27:41.992Z,57.20
2023-04-15T12:28:41.995Z,55.75
2023-04-15T12:29:42.031Z,58.49
2023-04-15T12:30:41.961Z,56.72
2023-04-15T12:31:41.989Z,59.30
2023-04-15T12:32:43.435Z,56.88
2023-04-15T12:33:42.934Z,55.43
2023-04-15T12:34:41.972Z,57.04
2023-04-15T12:35:41.911Z,57.52
2023-04-15T12:36:41.915Z,55.91
2023-04-15T12:37:41.911Z,57.85
2023-04-15T12:38:41.891Z,57.36
2023-04-15T12:39:41.884Z,57.04
2023-04-15T12:40:41.855Z,59.78
2023-04-15T12:41:41.867Z,58.81
2023-04-15T12:42:41.857Z,60.10
2023-04-15T12:43:41.833Z,59.14
2023-04-15T12:44:41.834Z,56.56
2023-04-15T12:45:41.813Z,55.11
2023-04-15T12:46:41.816Z,56.72
2023-04-15T12:47:41.834Z,58.49
2023-04-15T12:48:41.779Z,55.43
2023-04-15T12:49:41.802Z,58.17
2023-04-15T12:50:41.760Z,58.81
2023-04-15T12:51:41.750Z,57.69
2023-04-15T12:52:41.745Z,57.04